Time;durP1;ratioP1;P1;durP2;ratioP2;P2;SDS_P1;SDS_P2;PMS_P1;PMS_P2;Temp;Humidity;BMP_temperature;BMP_pressure;BME280_temperature;BME280_humidity;BME280_pressure;Samples;Min_cycle;Max_cycle;Signal;HPM_P1;HPM_P2
2021/06/01 00:01:46;;;;;;;5.10;3.37;;;;;;;9.45;80.34;99922.06;1630598;86;21040;-73
2021/06/01 00:04:16;;;;;;;6.87;3.95;;;;;;;9.52;80.26;99921.95;1632362;87;21583;-75
2021/06/01 00:06:43;;;;;;;11.57;4.05;;;;;;;9.52;80.07;99916.58;1631749;86;20997;-71
2021/06/01 00:09:16;;;;;;;9.00;4.20;;;;;;;9.51;80.03;99917.09;1633365;86;21109;-70
2021/06/01 00:11:44;;;;;;;10.70;3.52;;;;;;;9.53;80.01;99919.55;1622155;88;20992;-69
2021/06/01 00:14:11;;;;;;;8.33;3.90;;;;;;;9.42;80.15;99923.89;1596392;88;21069;-71
2021/06/01 00:16:38;;;;;;;9.90;3.30;;;;;;;9.40;80.25;99919.83;1569751;90;20975;-70
2021/06/01 00:19:08;;;;;;;8.65;4.40;;;;;;;9.41;80.35;99922.77;1596798;88;21007;-69
2021/06/01 00:21:39;;;;;;;5.92;3.77;;;;;;;9.43;80.38;99922.02;1626611;88;21111;-70
2021/06/01 00:24:06;;;;;;;8.80;3.40;;;;;;;9.46;80.27;99922.36;1620566;88;21656;-71
2021/06/01 00:26:33;;;;;;;8.70;5.17;;;;;;;9.48;80.14;99921.61;1646478;85;21075;-74
2021/06/01 00:29:01;;;;;;;7.53;3.58;;;;;;;9.50;80.08;99918.67;1629608;86;21653;-83
2021/06/01 00:31:28;;;;;;;7.00;3.98;;;;;;;9.54;79.99;99919.30;1632484;87;21583;-74
2021/06/01 00:33:54;;;;;;;4.35;3.80;;;;;;;9.52;79.78;99920.60;1593011;88;21079;-69
2021/06/01 00:36:21;;;;;;;4.85;3.42;;;;;;;9.46;79.77;99918.33;1619962;88;21593;-69
2021/06/01 00:38:47;;;;;;;5.37;3.65;;;;;;;9.42;79.92;99917.70;1611715;87;21095;-69
2021/06/01 00:41:14;;;;;;;4.22;3.50;;;;;;;9.41;80.03;99925.46;1615317;87;21586;-70
2021/06/01 00:43:41;;;;;;;12.28;3.87;;;;;;;9.33;80.31;99919.13;1621001;87;20976;-72
2021/06/01 00:46:08;;;;;;;8.25;3.55;;;;;;;9.21;80.64;99924.49;1627447;88;21069;-71
2021/06/01 00:48:34;;;;;;;7.53;4.37;;;;;;;9.19;80.92;99916.70;1627648;88;21047;-73
2021/06/01 00:51:01;;;;;;;8.13;4.35;;;;;;;9.18;80.85;99919.08;1609318;87;21118;-72
2021/06/01 00:53:27;;;;;;;4.78;4.33;;;;;;;9.19;80.83;99926.61;1594548;87;21057;-71
2021/06/01 00:55:54;;;;;;;7.67;4.42;;;;;;;9.22;80.84;99931.50;1633346;87;21101;-71
2021/06/01 00:58:20;;;;;;;5.45;3.80;;;;;;;9.23;80.83;99930.98;1633436;87;21042;-73
2021/06/01 01:03:25;;;;;;;5.53;4.37;;;;;;;9.20;80.95;99926.91;1594805;88;21598;-71
2021/06/01 01:05:55;;;;;;;9.60;3.95;;;;;;;9.17;80.91;99931.39;1618131;87;21003;-72
2021/06/01 01:08:45;;;;;;;4.40;3.50;;;;;;;9.13;80.94;99924.34;1596361;88;21573;-71
2021/06/01 01:11:32;;;;;;;4.55;3.92;;;;;;;9.08;81.10;99928.77;1617128;87;21067;-70
2021/06/01 01:14:27;;;;;;;6.17;4.17;;;;;;;9.03;81.13;99922.77;1588569;89;21040;-72
2021/06/01 01:17:05;;;;;;;5.15;3.50;;;;;;;9.04;81.27;99918.22;1604169;89;21262;-72
2021/06/01 01:20:04;;;;;;;4.35;3.77;;;;;;;9.05;81.34;99920.68;1620043;88;21003;-72
2021/06/01 01:22:32;;;;;;;7.47;3.52;;;;;;;9.06;81.36;99918.81;1598231;88;21117;-71
2021/06/01 01:25:39;;;;;;;9.68;4.10;;;;;;;9.04;81.33;99915.53;1625055;88;21081;-71
2021/06/01 01:28:29;;;;;;;3.90;3.58;;;;;;;9.00;81.40;99912.52;1623880;87;21014;-73
2021/06/01 01:30:58;;;;;;;9.28;3.42;;;;;;;8.98;81.46;99922.64;1606235;87;21861;-73
2021/06/01 01:33:31;;;;;;;6.33;3.33;;;;;;;8.88;81.71;99919.73;1582626;89;21171;-71
2021/06/01 01:36:01;;;;;;;9.13;3.55;;;;;;;8.82;81.93;99920.69;1602545;89;21079;-73
2021/06/01 01:38:28;;;;;;;16.10;3.75;;;;;;;8.83;82.11;99924.97;1602810;89;21615;-69
2021/06/01 01:41:01;;;;;;;4.45;3.58;;;;;;;8.86;82.17;99919.69;1619225;88;21113;-71
2021/06/01 01:43:31;;;;;;;5.45;3.77;;;;;;;8.83;82.24;99924.16;1626227;88;21064;-70
2021/06/01 01:46:04;;;;;;;6.67;4.85;;;;;;;8.79;82.29;99918.45;1611270;87;21120;-71
2021/06/01 01:51:14;;;;;;;6.85;4.17;;;;;;;8.73;82.66;99922.87;1615980;88;21102;-73
2021/06/01 01:53:54;;;;;;;5.10;3.17;;;;;;;8.68;82.68;99923.30;1599634;88;21185;-71
2021/06/01 01:56:22;;;;;;;5.40;3.67;;;;;;;8.62;83.11;99921.53;1626442;88;20998;-71
2021/06/01 01:58:50;;;;;;;4.67;4.10;;;;;;;8.56;83.49;99929.15;1628580;87;21073;-71
2021/06/01 02:01:17;;;;;;;8.20;2.83;;;;;;;8.53;83.67;99925.08;1594548;88;21078;-72
2021/06/01 02:03:44;;;;;;;3.92;3.52;;;;;;;8.55;83.77;99924.31;1603672;89;21631;-72
2021/06/01 02:06:10;;;;;;;4.60;3.15;;;;;;;8.52;83.74;99923.44;1590917;88;21079;-73
2021/06/01 02:08:40;;;;;;;6.37;3.33;;;;;;;8.49;83.97;99915.84;1596098;89;20992;-71
2021/06/01 02:11:07;;;;;;;3.95;3.02;;;;;;;8.42;84.32;99914.33;1615822;88;21038;-72
2021/06/01 02:13:43;;;;;;;3.77;2.92;;;;;;;8.38;84.50;99915.31;1612649;88;21679;-70
2021/06/01 02:16:11;;;;;;;6.15;3.40;;;;;;;8.40;84.71;99918.56;1602588;88;21008;-71
2021/06/01 02:18:38;;;;;;;7.42;3.02;;;;;;;8.42;84.71;99923.19;1602606;89;21060;-70
2021/06/01 02:21:18;;;;;;;5.37;3.42;;;;;;;8.45;84.75;99915.19;1614124;88;21065;-73
2021/06/01 02:23:52;;;;;;;4.67;3.08;;;;;;;8.44;84.64;99915.71;1612779;88;21087;-70
2021/06/01 02:26:30;;;;;;;10.08;3.17;;;;;;;8.46;84.68;99919.52;1602138;89;21008;-73
2021/06/01 02:29:08;;;;;;;3.77;3.35;;;;;;;8.49;84.72;99921.20;1582448;89;21154;-70
2021/06/01 02:31:38;;;;;;;5.60;3.15;;;;;;;8.49;84.67;99920.41;1617351;87;21057;-72
2021/06/01 02:34:06;;;;;;;3.20;2.90;;;;;;;8.50;84.63;99924.19;1608828;89;21782;-72
2021/06/01 02:36:36;;;;;;;8.28;3.33;;;;;;;8.55;84.60;99923.48;1607820;89;21673;-70
2021/06/01 02:39:04;;;;;;;6.05;3.15;;;;;;;8.55;84.42;99921.62;1625214;86;21062;-72
2021/06/01 02:41:30;;;;;;;7.03;3.05;;;;;;;8.57;84.34;99927.59;1618492;87;21066;-71
2021/06/01 02:43:57;;;;;;;5.75;3.35;;;;;;;8.54;84.52;99925.34;1644810;86;21696;-70
2021/06/01 02:46:23;;;;;;;5.67;3.85;;;;;;;8.54;84.53;99927.21;1637205;86;21043;-70
2021/06/01 02:48:49;;;;;;;7.87;4.12;;;;;;;8.54;84.65;99928.03;1625605;86;21023;-71
2021/06/01 02:51:17;;;;;;;5.65;3.20;;;;;;;8.57;84.68;99920.88;1612310;87;21569;-71
2021/06/01 02:53:50;;;;;;;6.87;3.25;;;;;;;8.63;84.54;99924.52;1606534;88;21115;-70
2021/06/01 02:56:17;;;;;;;3.50;3.05;;;;;;;8.63;84.41;99921.28;1581850;89;21007;-70
2021/06/01 02:58:49;;;;;;;3.42;3.12;;;;;;;8.69;84.36;99928.92;1621121;88;22055;-70
2021/06/01 03:01:18;;;;;;;5.00;3.30;;;;;;;8.68;84.13;99926.77;1591580;89;21601;-70
2021/06/01 03:03:48;;;;;;;3.10;2.80;;;;;;;8.69;84.20;99928.41;1601503;88;21095;-70
2021/06/01 03:06:23;;;;;;;4.30;3.75;;;;;;;8.70;84.13;99929.23;1628546;86;21067;-69
2021/06/01 03:08:50;;;;;;;4.58;3.42;;;;;;;8.66;84.15;99924.03;1626266;88;21118;-70
2021/06/01 03:11:18;;;;;;;5.25;3.30;;;;;;;8.69;84.16;99930.27;1591482;89;21749;-72
2021/06/01 03:13:46;;;;;;;4.70;3.17;;;;;;;8.77;84.12;99931.29;1626044;88;21141;-70
2021/06/01 03:16:13;;;;;;;3.67;3.37;;;;;;;8.85;83.86;99928.25;1623968;88;21575;-70
2021/06/01 03:18:42;;;;;;;7.83;3.55;;;;;;;8.87;83.42;99936.08;1614112;87;21076;-70
2021/06/01 03:21:09;;;;;;;8.55;4.67;;;;;;;8.82;83.38;99927.39;1559047;90;21557;-70
2021/06/01 03:23:35;;;;;;;4.92;3.15;;;;;;;8.82;83.45;99927.91;1620544;88;21102;-69
2021/06/01 03:26:07;;;;;;;4.87;3.72;;;;;;;8.84;83.43;99925.27;1630475;86;21121;-70
2021/06/01 03:28:32;;;;;;;15.20;9.73;;;;;;;8.89;83.37;99926.73;1622597;87;21069;-69
2021/06/01 03:30:58;;;;;;;5.47;4.05;;;;;;;8.95;83.30;99931.69;1585273;89;21054;-71
2021/06/01 03:33:24;;;;;;;3.95;3.15;;;;;;;8.98;82.85;99925.85;1604800;88;21139;-68
2021/06/01 03:35:51;;;;;;;7.15;3.72;;;;;;;8.99;82.50;99928.31;1639972;86;21120;-69
2021/06/01 03:38:17;;;;;;;6.42;5.80;;;;;;;9.02;82.31;99929.17;1629938;87;21094;-69
2021/06/01 03:40:44;;;;;;;12.03;4.12;;;;;;;9.05;82.13;99935.95;1629904;87;21074;-69
2021/06/01 03:43:11;;;;;;;4.80;3.10;;;;;;;9.11;81.99;99925.64;1646979;86;21569;-69
2021/06/01 03:45:39;;;;;;;4.12;3.50;;;;;;;9.20;81.50;99924.23;1644013;86;21036;-70
2021/06/01 03:48:07;;;;;;;6.42;3.67;;;;;;;9.25;80.33;99924.34;1649894;87;21559;-71
2021/06/01 03:50:34;;;;;;;8.68;3.30;;;;;;;9.33;80.37;99916.44;1641850;86;20966;-70
2021/06/01 03:53:02;;;;;;;9.55;3.65;;;;;;;9.40;80.27;99917.93;1637351;87;21565;-69
2021/06/01 03:55:28;;;;;;;3.60;3.30;;;;;;;9.46;79.93;99922.36;1663917;86;21608;-72
2021/06/01 03:57:55;;;;;;;4.08;3.08;;;;;;;9.48;79.47;99924.30;1664424;86;21003;-71
2021/06/01 04:00:25;;;;;;;7.58;4.20;;;;;;;9.55;79.53;99918.25;1664544;85;21055;-74
2021/06/01 04:02:51;;;;;;;5.67;3.55;;;;;;;9.65;79.08;99920.33;1663164;85;21083;-69
2021/06/01 04:05:19;;;;;;;5.75;3.30;;;;;;;9.75;79.03;99921.05;1627195;87;21111;-68
2021/06/01 04:07:45;;;;;;;5.45;3.72;;;;;;;9.80;78.34;99908.55;1634540;86;21126;-70
2021/06/01 04:10:14;;;;;;;7.05;4.70;;;;;;;9.87;78.39;99917.30;1630806;87;21077;-69
2021/06/01 04:12:40;;;;;;;3.95;3.55;;;;;;;9.91;78.13;99917.09;1560532;90;21645;-70
2021/06/01 04:15:09;;;;;;;7.55;3.83;;;;;;;9.97;77.99;99914.80;1617424;88;20976;-71
2021/06/01 04:17:35;;;;;;;6.42;4.22;;;;;;;10.04;78.05;99918.67;1620989;87;21128;-69
2021/06/01 04:20:03;;;;;;;3.10;2.75;;;;;;;10.13;77.78;99923.94;1604767;89;21080;-71
2021/06/01 04:22:30;;;;;;;4.05;3.50;;;;;;;10.21;77.10;99913.38;1625985;87;21053;-68
2021/06/01 04:24:57;;;;;;;11.10;4.50;;;;;;;10.27;76.95;99923.95;1601228;88;21129;-68
2021/06/01 04:27:24;;;;;;;5.87;5.28;;;;;;;10.32;76.68;99918.67;1652672;86;21106;-69
2021/06/01 04:29:50;;;;;;;3.72;3.40;;;;;;;10.38;76.52;99917.70;1653845;85;21075;-68
2021/06/01 04:32:16;;;;;;;9.10;3.22;;;;;;;10.42;75.84;99921.54;1622076;87;21106;-70
2021/06/01 04:34:43;;;;;;;3.37;2.98;;;;;;;10.46;75.26;99913.79;1624037;87;21378;-68
2021/06/01 04:37:09;;;;;;;6.30;4.75;;;;;;;10.52;75.02;99910.66;1624089;87;21705;-70
2021/06/01 04:39:36;;;;;;;10.00;4.53;;;;;;;10.60;75.03;99914.31;1624630;88;20992;-69
2021/06/01 04:42:04;;;;;;;3.72;3.40;;;;;;;10.70;75.05;99913.10;1605039;87;21036;-70
2021/06/01 04:44:30;;;;;;;4.45;3.25;;;;;;;10.79;74.35;99914.34;1616844;87;21078;-70
2021/06/01 04:46:57;;;;;;;3.33;2.87;;;;;;;10.85;73.15;99911.47;1608355;87;21215;-70
2021/06/01 04:49:23;;;;;;;5.78;3.45;;;;;;;10.89;72.69;99909.09;1623989;88;21937;-69
2021/06/01 04:51:49;;;;;;;4.22;3.05;;;;;;;10.91;72.91;99905.11;1614495;88;21638;-70
2021/06/01 04:54:16;;;;;;;7.80;3.33;;;;;;;10.94;72.51;99911.34;1622302;86;21290;-70
2021/06/01 04:56:42;;;;;;;11.85;4.72;;;;;;;10.97;72.78;99910.57;1638158;86;21155;-69
2021/06/01 04:59:08;;;;;;;4.03;3.10;;;;;;;11.01;72.62;99909.83;1608269;87;20983;-70
2021/06/01 05:01:35;;;;;;;3.80;3.42;;;;;;;11.07;72.41;99904.81;1624394;88;21097;-69
2021/06/01 05:04:02;;;;;;;3.35;2.30;;;;;;;11.12;72.22;99904.06;1606758;86;21008;-69
2021/06/01 05:06:28;;;;;;;7.45;2.77;;;;;;;11.20;72.10;99898.25;1626671;86;21547;-70
2021/06/01 05:08:55;;;;;;;5.75;2.80;;;;;;;11.23;71.16;99899.08;1625838;88;21074;-73
2021/06/01 05:11:21;;;;;;;3.95;2.72;;;;;;;11.25;71.22;99899.13;1603104;88;21112;-72
2021/06/01 05:13:48;;;;;;;3.15;2.83;;;;;;;11.29;70.49;99901.61;1614110;86;21425;-69
2021/06/01 05:16:15;;;;;;;8.85;2.72;;;;;;;11.33;70.18;99899.22;1626057;86;21109;-70
2021/06/01 05:18:42;;;;;;;2.92;2.62;;;;;;;11.35;70.35;99903.31;1626168;88;21574;-70
2021/06/01 05:21:09;;;;;;;7.45;2.47;;;;;;;11.41;70.34;99906.08;1626263;88;21042;-71
2021/06/01 05:23:36;;;;;;;8.23;2.75;;;;;;;11.49;70.04;99917.22;1592925;88;21086;-70
2021/06/01 05:26:03;;;;;;;4.85;2.67;;;;;;;11.57;69.23;99897.09;1610466;88;21607;-70
2021/06/01 05:28:30;;;;;;;10.25;2.70;;;;;;;11.64;68.61;99914.72;1621186;87;21645;-68
2021/06/01 05:31:07;;;;;;;5.08;2.87;;;;;;;11.70;68.68;99908.86;1591010;89;21635;-70
2021/06/01 05:33:31;;;;;;;6.97;2.52;;;;;;;11.72;69.09;99904.02;1600658;89;21133;-72
2021/06/01 05:35:57;;;;;;;2.58;2.20;;;;;;;11.75;69.14;99896.27;1601640;89;21076;-70
2021/06/01 05:38:26;;;;;;;9.50;2.77;;;;;;;11.80;68.45;99906.28;1581596;89;21031;-70
2021/06/01 05:40:53;;;;;;;10.40;4.60;;;;;;;11.90;68.35;99905.05;1611117;88;21040;-73
2021/06/01 05:43:20;;;;;;;7.25;2.22;;;;;;;11.95;67.82;99913.20;1580396;89;21147;-70
2021/06/01 05:45:47;;;;;;;4.17;2.00;;;;;;;11.99;67.40;99909.48;1594523;89;21111;-71
2021/06/01 05:48:13;;;;;;;5.83;2.25;;;;;;;12.02;67.29;99916.53;1600269;89;21135;-73
2021/06/01 05:50:40;;;;;;;5.05;2.50;;;;;;;12.02;66.73;99914.36;1592849;88;21802;-74
2021/06/01 05:53:07;;;;;;;3.77;2.00;;;;;;;12.03;66.77;99903.86;1621410;88;20983;-70
2021/06/01 05:55:35;;;;;;;3.10;2.10;;;;;;;12.05;66.31;99913.31;1599781;89;21659;-71
2021/06/01 05:58:01;;;;;;;7.22;2.22;;;;;;;12.08;66.07;99904.73;1580402;89;21088;-73
2021/06/01 06:00:29;;;;;;;1.92;1.82;;;;;;;12.10;66.47;99906.62;1610507;88;21069;-70
2021/06/01 06:02:55;;;;;;;3.65;2.30;;;;;;;12.13;66.97;99914.19;1601414;88;21753;-72
2021/06/01 06:05:22;;;;;;;2.20;2.00;;;;;;;12.20;67.21;99908.61;1602644;88;21039;-70
2021/06/01 06:07:49;;;;;;;17.07;2.22;;;;;;;12.28;66.92;99912.75;1590445;88;21119;-70
2021/06/01 06:10:16;;;;;;;3.85;2.37;;;;;;;12.36;65.80;99910.39;1625561;88;21066;-71
2021/06/01 06:12:43;;;;;;;4.40;1.72;;;;;;;12.40;65.24;99898.02;1605168;88;21045;-71
2021/06/01 06:15:17;;;;;;;15.50;2.75;;;;;;;12.44;63.80;99896.42;1578490;90;21122;-71
2021/06/01 06:18:06;;;;;;;1.92;1.70;;;;;;;12.51;63.60;99907.83;1580620;89;21105;-72
2021/06/01 06:20:33;;;;;;;10.25;2.75;;;;;;;12.56;62.81;99909.76;1626775;88;21693;-71
2021/06/01 06:23:01;;;;;;;3.85;1.98;;;;;;;12.63;63.17;99908.98;1627517;87;21121;-69
2021/06/01 06:25:27;;;;;;;4.00;1.67;;;;;;;12.69;62.89;99920.11;1627517;88;21684;-70
2021/06/01 06:27:55;;;;;;;2.15;1.95;;;;;;;12.74;61.62;99904.48;1600257;88;21131;-69
2021/06/01 06:30:22;;;;;;;3.92;1.45;;;;;;;12.76;60.96;99919.34;1624979;88;21033;-70
2021/06/01 06:32:49;;;;;;;5.58;1.92;;;;;;;12.80;60.51;99911.56;1605642;88;21073;-70
2021/06/01 06:35:16;;;;;;;3.35;1.52;;;;;;;12.81;60.79;99913.16;1588439;90;21130;-71
2021/06/01 06:37:43;;;;;;;5.37;2.22;;;;;;;12.84;61.01;99928.33;1588261;89;21114;-69
2021/06/01 06:40:10;;;;;;;2.17;2.00;;;;;;;12.88;61.60;99923.22;1599374;88;21097;-71
2021/06/01 06:42:38;;;;;;;3.15;2.00;;;;;;;12.96;61.83;99916.80;1576448;88;21654;-76
2021/06/01 06:45:08;;;;;;;1.47;1.37;;;;;;;13.02;60.80;99914.95;1612388;88;21112;-69
2021/06/01 06:50:17;;;;;;;9.48;2.05;;;;;;;13.10;60.66;99917.15;1575998;90;21097;-72
2021/06/01 06:52:43;;;;;;;3.92;2.25;;;;;;;13.16;59.40;99896.42;1598817;88;21082;-74
2021/06/01 06:55:11;;;;;;;8.40;2.22;;;;;;;13.21;59.94;99905.91;1597517;89;21063;-74
2021/06/01 06:57:39;;;;;;;3.37;2.00;;;;;;;13.23;59.73;99899.19;1597730;89;21158;-71
2021/06/01 07:00:14;;;;;;;10.98;2.30;;;;;;;13.27;59.27;99900.28;1594690;88;21118;-71
2021/06/01 07:02:42;;;;;;;2.47;1.87;;;;;;;13.29;58.26;99894.59;1580996;89;21090;-71
2021/06/01 07:05:13;;;;;;;3.92;1.87;;;;;;;13.31;58.13;99914.89;1601520;88;21033;-70
2021/06/01 07:07:40;;;;;;;2.50;2.02;;;;;;;13.40;58.62;99908.44;1601482;88;21082;-72
2021/06/01 07:10:12;;;;;;;2.27;2.12;;;;;;;13.52;58.81;99909.05;1601503;88;21152;-70
2021/06/01 07:12:43;;;;;;;6.12;2.00;;;;;;;13.62;57.78;99917.74;1602191;88;21158;-71
2021/06/01 07:15:27;;;;;;;4.85;2.80;;;;;;;13.66;57.69;99920.19;1595571;89;21618;-70
2021/06/01 07:17:56;;;;;;;2.92;2.20;;;;;;;13.72;57.68;99908.30;1590829;88;21201;-69
2021/06/01 07:20:22;;;;;;;2.72;2.12;;;;;;;13.80;57.38;99908.62;1588499;88;21125;-71
2021/06/01 07:22:49;;;;;;;2.77;2.05;;;;;;;13.89;57.31;99915.13;1606608;88;21043;-70
2021/06/01 07:25:16;;;;;;;2.20;1.92;;;;;;;13.93;56.58;99899.18;1609243;88;21102;-70
2021/06/01 07:27:42;;;;;;;2.02;1.82;;;;;;;13.89;56.52;99900.80;1603320;89;20995;-72
2021/06/01 07:30:10;;;;;;;5.03;1.87;;;;;;;13.84;57.25;99892.13;1608246;88;21446;-71
2021/06/01 07:32:36;;;;;;;2.15;1.60;;;;;;;13.90;56.57;99892.97;1629528;87;21057;-72
2021/06/01 07:35:03;;;;;;;3.98;2.37;;;;;;;13.90;56.29;99899.72;1581786;89;21070;-71
2021/06/01 07:37:31;;;;;;;2.77;2.15;;;;;;;13.92;56.42;99902.42;1581750;89;21644;-70
2021/06/01 07:39:58;;;;;;;2.42;1.95;;;;;;;13.98;55.89;99902.72;1595152;88;21099;-69
2021/06/01 07:42:24;;;;;;;4.35;1.67;;;;;;;14.04;54.84;99894.61;1608323;87;21127;-71
2021/06/01 07:44:50;;;;;;;9.63;2.98;;;;;;;14.13;54.99;99913.30;1580740;89;26168;-72
2021/06/01 07:47:17;;;;;;;4.40;2.30;;;;;;;14.21;54.51;99914.11;1585791;89;21089;-72
2021/06/01 07:49:43;;;;;;;2.52;1.98;;;;;;;14.26;54.10;99908.71;1625129;87;21089;-70
2021/06/01 07:52:10;;;;;;;5.08;1.77;;;;;;;14.32;54.22;99916.58;1634097;87;21264;-70
2021/06/01 07:54:36;;;;;;;3.70;2.47;;;;;;;14.36;53.74;99906.05;1634153;87;21735;-71
2021/06/01 07:57:04;;;;;;;3.55;1.75;;;;;;;14.37;53.94;99909.85;1607111;87;21076;-70
2021/06/01 07:59:31;;;;;;;5.90;1.80;;;;;;;14.32;53.86;99919.82;1598652;87;21085;-70
2021/06/01 08:01:58;;;;;;;3.17;1.90;;;;;;;14.26;54.33;99914.12;1634288;87;21115;-72
2021/06/01 08:04:25;;;;;;;1.92;1.82;;;;;;;14.26;54.33;99917.64;1599337;88;21187;-70
2021/06/01 08:06:51;;;;;;;4.45;3.90;;;;;;;14.25;53.84;99904.38;1608203;89;21163;-71
2021/06/01 08:09:18;;;;;;;6.72;2.00;;;;;;;14.26;54.18;99912.77;1613448;87;21050;-69
2021/06/01 08:11:44;;;;;;;4.90;2.20;;;;;;;14.27;54.41;99910.34;1605175;88;21042;-71
2021/06/01 08:14:10;;;;;;;2.92;2.10;;;;;;;14.33;53.48;99903.86;1609836;89;21108;-72
2021/06/01 08:16:43;;;;;;;2.83;1.85;;;;;;;14.42;53.43;99905.52;1604960;89;21117;-71
2021/06/01 08:19:19;;;;;;;4.72;2.12;;;;;;;14.47;52.93;99900.11;1640340;86;21685;-70
2021/06/01 08:24:07;;;;;;;3.70;2.27;;;;;;;14.60;53.08;99904.44;1649011;87;21526;-71
2021/06/01 08:26:33;;;;;;;7.80;2.45;;;;;;;14.65;52.08;99892.27;1648705;86;21176;-70
2021/06/01 08:28:59;;;;;;;5.83;1.72;;;;;;;14.71;51.89;99899.30;1630374;86;21010;-71
2021/06/01 08:31:28;;;;;;;2.00;1.57;;;;;;;14.75;51.49;99885.48;1638045;86;22257;-71
2021/06/01 08:33:54;;;;;;;5.62;1.92;;;;;;;14.81;51.93;99880.34;1606792;89;21110;-70
2021/06/01 08:36:21;;;;;;;3.12;2.40;;;;;;;14.90;50.28;99889.26;1600133;88;21075;-70
2021/06/01 08:38:47;;;;;;;4.65;2.50;;;;;;;14.93;50.98;99889.52;1622296;87;21065;-71
2021/06/01 08:41:16;;;;;;;5.25;1.85;;;;;;;15.02;50.89;99886.52;1611283;89;21009;-72
2021/06/01 08:43:44;;;;;;;4.20;2.02;;;;;;;15.10;50.16;99882.45;1611649;89;21230;-71
2021/06/01 08:46:10;;;;;;;2.22;1.55;;;;;;;15.10;48.93;99884.63;1609297;88;21071;-70
2021/06/01 08:48:38;;;;;;;5.25;1.90;;;;;;;15.08;48.57;99875.13;1632691;86;21582;-71
2021/06/01 08:51:06;;;;;;;3.98;1.70;;;;;;;15.07;48.65;99883.80;1600546;88;21051;-72
2021/06/01 08:53:35;;;;;;;3.20;2.22;;;;;;;15.06;48.68;99885.45;1584753;89;21035;-71
2021/06/01 08:56:03;;;;;;;7.08;1.90;;;;;;;15.11;48.82;99879.45;1598888;88;21235;-70
2021/06/01 08:58:30;;;;;;;4.95;3.50;;;;;;;15.17;47.85;99870.23;1602623;87;20979;-70
2021/06/01 09:00:57;;;;;;;3.50;1.72;;;;;;;15.20;47.84;99874.30;1619276;88;20998;-71
2021/06/01 09:03:25;;;;;;;2.10;1.70;;;;;;;15.26;47.67;99873.18;1640737;87;21094;-71
2021/06/01 09:14:28;;;;;;;2.55;1.95;;;;;;;15.39;46.28;99858.25;1590439;89;21560;-70
2021/06/01 09:22:42;;;;;;;5.67;2.60;;;;;;;15.50;47.63;99876.07;1641508;86;21215;-71
2021/06/01 09:25:15;;;;;;;2.25;2.05;;;;;;;15.57;46.95;99860.36;1660296;85;21615;-70
2021/06/01 09:27:51;;;;;;;4.70;1.70;;;;;;;15.66;45.98;99869.53;1647544;86;21125;-72
2021/06/01 09:30:51;;;;;;;2.35;1.75;;;;;;;15.76;45.27;99865.96;1639567;85;21539;-69
2021/06/01 09:33:22;;;;;;;1.70;1.60;;;;;;;15.79;44.38;99861.33;1596102;87;21650;-72
2021/06/01 09:36:04;;;;;;;1.62;1.40;;;;;;;15.80;43.61;99862.95;1614740;88;21076;-69
2021/06/01 09:38:43;;;;;;;6.97;1.65;;;;;;;15.77;43.95;99861.63;1581078;89;21104;-73
2021/06/01 09:41:16;;;;;;;4.55;1.50;;;;;;;15.68;43.66;99857.30;1613353;87;21108;-72
2021/06/01 09:43:53;;;;;;;11.05;1.65;;;;;;;15.67;44.48;99873.33;1633725;87;21603;-68
2021/06/01 09:46:38;;;;;;;2.30;1.77;;;;;;;15.69;45.63;99858.12;1583586;89;20965;-69
2021/06/01 09:49:19;;;;;;;5.00;1.90;;;;;;;15.71;44.74;99868.16;1607421;89;21135;-70
2021/06/01 09:51:57;;;;;;;2.25;1.52;;;;;;;15.68;44.58;99863.30;1582165;88;21071;-72
2021/06/01 09:54:45;;;;;;;2.92;1.82;;;;;;;15.67;44.84;99863.84;1582746;89;21101;-76
2021/06/01 09:57:27;;;;;;;2.87;1.72;;;;;;;15.76;44.84;99848.33;1583676;89;21302;-68
2021/06/01 10:00:12;;;;;;;;;;;;;;;15.86;44.96;99844.21;1608899;89;21097;-66
2021/06/01 10:02:42;;;;;;;5.30;2.20;;;;;;;16.02;43.48;99856.56;1581466;87;21049;-71
2021/06/01 10:05:20;;;;;;;2.10;1.60;;;;;;;16.15;43.04;99846.45;1634723;87;21629;-67
2021/06/01 10:07:52;;;;;;;4.05;1.72;;;;;;;16.17;42.94;99857.83;1629003;87;21099;-72
2021/06/01 10:10:28;;;;;;;2.30;1.30;;;;;;;16.27;41.99;99847.44;1607390;89;21685;-68
2021/06/01 10:13:01;;;;;;;4.72;2.25;;;;;;;16.34;41.49;99847.94;1581895;89;21109;-70
2021/06/01 10:15:29;;;;;;;10.45;3.47;;;;;;;16.38;41.80;99846.27;1621168;87;21010;-72
2021/06/01 10:17:56;;;;;;;7.35;2.30;;;;;;;16.42;42.22;99850.03;1591459;89;21053;-71
2021/06/01 10:20:26;;;;;;;2.30;2.02;;;;;;;16.48;42.38;99847.00;1620296;88;21078;-70
2021/06/01 10:22:53;;;;;;;3.20;2.30;;;;;;;16.51;42.85;99846.42;1637128;86;21601;-68
2021/06/01 10:25:19;;;;;;;1.95;1.85;;;;;;;16.47;42.39;99845.92;1594153;89;21044;-71
2021/06/01 10:27:48;;;;;;;2.72;1.57;;;;;;;16.47;43.31;99845.38;1574536;91;21129;-70
2021/06/01 10:30:16;;;;;;;6.58;3.52;;;;;;;16.49;43.05;99841.03;1584834;89;21629;-74
2021/06/01 10:32:48;;;;;;;3.15;1.62;;;;;;;16.55;43.71;99833.89;1620851;87;21130;-71
2021/06/01 10:35:18;;;;;;;;;;;;;;;16.65;42.82;99842.52;1608076;89;20969;-71
2021/06/01 10:52:06;;;;;;;5.85;1.65;;;;;;;16.59;42.12;99836.09;1588870;87;21056;-74
2021/06/01 10:54:46;;;;;;;6.00;1.50;;;;;;;16.63;41.04;99837.12;1585080;89;21688;-73
2021/06/01 10:57:16;;;;;;;1.50;1.40;;;;;;;16.66;40.90;99829.77;1589042;88;20969;-72
2021/06/01 11:00:00;;;;;;;7.95;3.10;;;;;;;16.62;39.77;99834.96;1603862;88;21147;-71
2021/06/01 11:02:20;;;;;;;8.40;1.25;;;;;;;16.63;40.74;99840.66;1624125;87;21109;-72
2021/06/01 11:05:17;;;;;;;2.20;1.40;;;;;;;16.68;40.91;99830.30;1632433;87;21600;-70
2021/06/01 11:08:11;;;;;;;1.70;1.60;;;;;;;16.75;41.02;99831.56;1595905;89;21063;-69
2021/06/01 11:10:45;;;;;;;2.67;1.45;;;;;;;16.79;40.38;99835.87;1601832;89;21019;-69
2021/06/01 11:13:28;;;;;;;9.70;2.05;;;;;;;16.83;41.33;99838.30;1614888;87;21024;-69
2021/06/01 11:15:58;;;;;;;3.92;1.62;;;;;;;16.82;42.21;99828.52;1607748;89;21068;-69
2021/06/01 11:18:39;;;;;;;9.68;2.08;;;;;;;16.86;42.12;99841.79;1607524;89;21681;-71
2021/06/01 11:21:36;;;;;;;5.87;2.00;;;;;;;16.94;42.10;99837.08;1611301;87;21658;-70
2021/06/01 11:33:02;;;;;;;7.72;1.37;;;;;;;17.17;40.55;99813.74;1641493;86;21290;-73
2021/06/01 11:35:32;;;;;;;2.72;1.50;;;;;;;17.23;40.47;99818.00;1627985;86;21155;-72
2021/06/01 11:40:51;;;;;;;2.90;1.85;;;;;;;17.37;39.82;99825.70;1627525;87;21053;-70
2021/06/01 11:43:15;;;;;;;4.67;1.50;;;;;;;17.38;40.22;99821.89;1668400;84;21063;-71
2021/06/01 11:46:04;;;;;;;5.28;1.72;;;;;;;17.32;40.40;99815.70;1660271;86;21015;-69
2021/06/01 11:51:13;;;;;;;4.95;1.52;;;;;;;17.10;41.16;99825.50;1663293;85;21043;-71
2021/06/01 11:54:04;;;;;;;7.60;1.65;;;;;;;16.95;40.57;99838.16;1652034;86;21642;-70
2021/06/01 12:02:35;;;;;;;2.17;1.47;;;;;;;16.84;40.38;99827.13;1645366;86;21134;-73
2021/06/01 12:11:12;;;;;;;6.12;1.20;;;;;;;16.93;39.96;99832.19;1671992;84;21398;-70
2021/06/01 12:18:41;;;;;;;8.58;1.70;;;;;;;17.36;39.77;99821.39;1659698;85;20916;-71
2021/06/01 12:21:13;;;;;;;8.05;2.67;;;;;;;17.36;40.08;99829.55;1679635;84;20943;-71
2021/06/01 12:23:49;;;;;;;5.55;1.90;;;;;;;17.30;39.35;99830.16;1650617;86;21007;-70
2021/06/01 12:26:19;;;;;;;6.10;1.55;;;;;;;17.31;39.44;99828.25;1654334;86;21152;-74
2021/06/01 12:32:11;;;;;;;6.42;2.00;;;;;;;17.23;40.10;99824.25;1686841;84;20992;-72
2021/06/01 13:08:12;;;;;;;3.25;1.47;;;;;;;17.53;38.96;99804.57;1650573;86;20989;-82
2021/06/01 13:19:25;;;;;;;5.35;2.17;;;;;;;17.20;40.82;99809.89;1632814;86;21101;-71
2021/06/01 13:22:14;;;;;;;1.82;1.72;;;;;;;17.08;41.52;99831.76;1626971;87;21014;-71
2021/06/01 13:46:07;;;;;;;6.65;2.22;;;;;;;17.09;39.89;99817.89;1610149;89;21159;-72
2021/06/01 13:51:11;;;;;;;5.30;3.15;;;;;;;16.92;39.48;99818.36;1611139;89;21084;-73
2021/06/01 13:56:00;;;;;;;9.88;2.40;;;;;;;16.75;39.43;99823.97;1623745;88;21083;-68
2021/06/01 13:58:40;;;;;;;5.70;3.17;;;;;;;16.66;39.81;99821.61;1602349;88;21597;-74
2021/06/01 14:01:06;;;;;;;2.75;1.40;;;;;;;16.60;39.90;99811.34;1588645;90;21070;-68
2021/06/01 14:30:56;;;;;;;1.95;1.67;;;;;;;16.69;39.59;99822.41;1581980;90;21178;-73
2021/06/01 14:36:02;;;;;;;4.28;1.50;;;;;;;16.55;39.86;99818.95;1606991;88;21086;-74
2021/06/01 14:38:41;;;;;;;3.87;1.70;;;;;;;16.49;40.06;99817.41;1631624;87;21125;-70
2021/06/01 15:31:07;;;;;;;3.25;2.50;;;;;;;17.20;40.28;99818.05;1624498;88;21050;-71
2021/06/01 15:40:57;;;;;;;8.18;1.90;;;;;;;17.12;40.48;99824.67;1622367;88;21074;-75